Time;durP1;ratioP1;P1;durP2;ratioP2;P2;SDS_P1;SDS_P2;PMS_P1;PMS_P2;Temp;Humidity;BMP_temperature;BMP_pressure;BME280_temperature;BME280_humidity;BME280_pressure;Samples;Min_cycle;Max_cycle;Signal;HPM_P1;HPM_P2
2022/03/17 00:00:10;;;;;;;16.35;5.82;;;;;;;15.11;34.15;102342.06;5075941;28;20457;-74
2022/03/17 00:02:36;;;;;;;13.02;5.22;;;;;;;15.11;33.70;102344.81;5075996;28;20459;-73
2022/03/17 00:05:04;;;;;;;12.35;5.35;;;;;;;15.07;33.77;102346.56;5058105;28;20020;-74
2022/03/17 00:07:30;;;;;;;10.90;5.07;;;;;;;14.89;34.05;102346.34;5076002;28;20036;-81
2022/03/17 00:09:56;;;;;;;14.38;5.18;;;;;;;14.89;33.97;102343.59;5057511;28;20063;-75
2022/03/17 00:12:22;;;;;;;20.50;5.63;;;;;;;14.87;34.09;102347.75;5057388;28;20435;-78
2022/03/17 00:14:47;;;;;;;14.75;5.93;;;;;;;14.84;34.20;102343.66;5062818;28;20025;-74
2022/03/17 00:17:13;;;;;;;14.75;4.88;;;;;;;14.81;34.11;102349.78;5037808;28;20051;-75
2022/03/17 00:19:39;;;;;;;11.20;4.80;;;;;;;14.82;33.89;102343.16;5037391;28;20560;-74
2022/03/17 00:22:08;;;;;;;10.63;4.95;;;;;;;14.80;34.01;102342.63;5037435;28;20029;-74
2022/03/17 00:24:37;;;;;;;6.53;3.60;;;;;;;14.74;34.10;102343.06;5037625;28;20391;-74
2022/03/17 00:27:05;;;;;;;14.18;5.57;;;;;;;14.66;33.66;102347.28;5055331;28;20399;-74
2022/03/17 00:29:33;;;;;;;14.85;4.78;;;;;;;14.56;33.98;102347.47;5037601;28;20436;-73
2022/03/17 00:31:59;;;;;;;10.82;4.30;;;;;;;14.55;34.08;102345.84;5037552;28;20552;-74
2022/03/17 00:34:24;;;;;;;11.38;4.63;;;;;;;14.54;33.99;102341.47;5055074;28;20029;-80
2022/03/17 00:36:50;;;;;;;12.65;4.97;;;;;;;14.51;34.17;102342.03;5055050;28;20067;-74
2022/03/17 00:39:16;;;;;;;12.90;4.30;;;;;;;14.50;34.04;102343.16;5071502;28;20028;-75
2022/03/17 00:41:42;;;;;;;9.98;4.53;;;;;;;14.41;34.23;102343.00;5056839;28;20035;-75
2022/03/17 00:44:08;;;;;;;11.60;4.00;;;;;;;14.43;34.46;102338.84;5067702;28;20053;-75
2022/03/17 00:46:34;;;;;;;10.95;3.63;;;;;;;14.56;34.31;102341.97;5055200;28;20025;-75
2022/03/17 00:48:59;;;;;;;9.68;3.75;;;;;;;14.55;34.42;102343.09;5037356;28;20109;-75
2022/03/17 00:51:25;;;;;;;10.77;3.78;;;;;;;14.55;34.29;102335.66;5055213;28;20032;-75
2022/03/17 00:53:50;;;;;;;9.27;4.00;;;;;;;14.43;34.45;102333.34;5054978;28;20021;-74
2022/03/17 00:56:16;;;;;;;9.18;4.57;;;;;;;14.34;34.82;102337.88;5054921;28;20029;-75
2022/03/17 00:58:45;;;;;;;6.63;3.80;;;;;;;14.34;34.80;102339.81;5055055;28;20069;-78
2022/03/17 01:01:15;;;;;;;7.05;2.92;;;;;;;14.32;34.96;102336.56;5054959;28;20467;-74
2022/03/17 01:03:42;;;;;;;7.72;3.15;;;;;;;14.31;35.13;102330.25;5055198;28;20032;-74
2022/03/17 01:06:08;;;;;;;9.00;3.45;;;;;;;14.32;35.12;102331.88;5054545;28;20020;-74
2022/03/17 01:08:35;;;;;;;8.90;3.40;;;;;;;14.32;35.01;102333.81;5054722;28;20023;-74
2022/03/17 01:11:00;;;;;;;11.73;3.53;;;;;;;14.32;35.21;102334.63;5054697;28;20051;-78
2022/03/17 01:13:26;;;;;;;8.20;3.50;;;;;;;14.33;35.17;102332.69;5055009;28;20025;-75
2022/03/17 01:15:51;;;;;;;8.95;3.97;;;;;;;14.30;35.40;102339.63;5036512;28;20119;-75
2022/03/17 01:18:17;;;;;;;9.05;3.13;;;;;;;14.27;35.35;102334.69;5054648;28;20029;-74
2022/03/17 01:20:44;;;;;;;9.55;3.58;;;;;;;14.23;35.47;102335.59;5054442;28;20715;-74
2022/03/17 01:23:10;;;;;;;7.65;3.80;;;;;;;14.23;35.27;102333.69;5054521;28;20032;-74
2022/03/17 01:25:35;;;;;;;6.25;3.42;;;;;;;14.23;35.24;102333.69;5054262;28;20025;-75
2022/03/17 01:28:01;;;;;;;7.43;3.75;;;;;;;14.15;35.42;102337.09;5054468;28;20048;-74
2022/03/17 01:30:27;;;;;;;17.58;4.13;;;;;;;14.12;35.50;102338.50;5054511;28;20048;-75
2022/03/17 01:32:52;;;;;;;9.02;3.53;;;;;;;14.12;35.22;102332.19;5036393;28;20449;-75
2022/03/17 01:35:18;;;;;;;10.60;3.25;;;;;;;14.09;35.61;102332.78;5054225;28;20029;-74
2022/03/17 01:37:44;;;;;;;7.78;3.92;;;;;;;14.05;35.54;102326.25;5054394;28;20024;-75
2022/03/17 01:40:10;;;;;;;7.55;3.08;;;;;;;13.98;35.70;102334.88;5054063;28;20108;-75
2022/03/17 01:42:36;;;;;;;8.88;4.18;;;;;;;13.99;35.56;102333.75;5054153;28;20026;-74
2022/03/17 01:45:03;;;;;;;12.88;6.13;;;;;;;13.96;35.73;102336.28;5053922;28;20078;-75
2022/03/17 01:47:29;;;;;;;7.40;3.92;;;;;;;13.94;35.85;102347.56;5054028;28;20545;-75
2022/03/17 01:50:01;;;;;;;10.57;3.47;;;;;;;14.00;35.65;102345.56;5054042;28;20025;-75
2022/03/17 01:52:27;;;;;;;6.22;3.20;;;;;;;13.99;35.49;102350.25;5054046;28;20474;-74
2022/03/17 01:54:53;;;;;;;7.95;3.30;;;;;;;13.86;35.81;102346.31;5053983;28;20025;-75
2022/03/17 01:57:20;;;;;;;8.85;4.78;;;;;;;13.93;35.74;102345.13;5053967;28;20024;-75
2022/03/17 01:59:47;;;;;;;7.05;3.17;;;;;;;13.85;35.72;102335.63;5053747;28;20028;-75
2022/03/17 02:02:13;;;;;;;8.15;3.60;;;;;;;13.72;36.03;102344.59;5053956;28;20025;-75
2022/03/17 02:04:41;;;;;;;6.00;3.20;;;;;;;13.74;35.92;102345.91;5053734;28;20025;-82
2022/03/17 02:07:07;;;;;;;7.00;3.30;;;;;;;13.77;35.79;102350.03;5053700;28;20029;-75
2022/03/17 02:09:34;;;;;;;5.43;2.72;;;;;;;13.79;35.95;102340.34;5053724;28;20032;-75
2022/03/17 02:14:48;;;;;;;7.65;3.80;;;;;;;13.87;35.84;102333.38;5053732;28;20106;-75
2022/03/17 02:17:14;;;;;;;8.25;3.20;;;;;;;13.90;35.75;102335.53;5052666;28;20175;-77
2022/03/17 02:19:40;;;;;;;6.65;3.20;;;;;;;13.87;35.75;102336.94;5053233;28;20036;-75
2022/03/17 02:22:10;;;;;;;8.00;3.22;;;;;;;13.79;35.94;102334.03;5053379;28;20025;-75
2022/03/17 02:27:20;;;;;;;8.43;3.28;;;;;;;13.65;36.17;102333.94;5053215;28;20060;-75
2022/03/17 02:29:46;;;;;;;8.80;3.53;;;;;;;13.60;36.36;102329.38;5053373;28;20035;-75
2022/03/17 02:32:12;;;;;;;9.25;3.10;;;;;;;13.55;36.30;102329.41;5053235;28;20032;-74
2022/03/17 02:34:38;;;;;;;9.40;3.53;;;;;;;13.53;36.31;102328.91;5053322;28;20029;-75
2022/03/17 02:37:04;;;;;;;6.65;3.25;;;;;;;13.51;36.47;102335.78;5053154;28;20048;-74
2022/03/17 02:39:30;;;;;;;8.05;3.63;;;;;;;13.51;36.50;102330.28;5035154;28;20060;-75
2022/03/17 02:41:55;;;;;;;6.88;3.33;;;;;;;13.46;36.65;102335.88;5052856;28;20086;-75
2022/03/17 02:44:22;;;;;;;9.32;3.67;;;;;;;13.49;36.43;102333.34;5052984;28;20029;-75
2022/03/17 02:46:48;;;;;;;11.93;3.78;;;;;;;13.44;36.51;102336.13;5052969;28;20032;-76
2022/03/17 02:49:15;;;;;;;9.40;3.20;;;;;;;13.44;36.52;102332.56;5053093;28;20390;-75
2022/03/17 02:51:42;;;;;;;5.85;3.28;;;;;;;13.56;36.24;102330.22;5052928;28;20098;-75
2022/03/17 02:54:07;;;;;;;6.13;3.70;;;;;;;13.56;36.08;102330.22;5052784;28;20021;-75
2022/03/17 02:56:34;;;;;;;10.13;3.88;;;;;;;13.49;36.20;102329.78;5034887;28;20033;-75
2022/03/17 02:58:59;;;;;;;9.45;4.43;;;;;;;13.39;36.71;102327.16;5052870;28;20025;-75
2022/03/17 03:01:25;;;;;;;9.50;4.18;;;;;;;13.47;36.49;102332.00;5052656;28;20639;-78
2022/03/17 03:03:50;;;;;;;9.50;4.30;;;;;;;13.60;36.54;102329.38;5052870;28;20079;-75
2022/03/17 03:06:16;;;;;;;9.55;4.10;;;;;;;13.64;36.51;102326.00;5052634;28;20524;-74
2022/03/17 03:08:41;;;;;;;11.38;3.97;;;;;;;13.71;36.51;102319.03;5052702;28;20519;-75
2022/03/17 03:11:07;;;;;;;8.88;3.90;;;;;;;13.80;36.48;102313.69;5052620;28;20029;-75
2022/03/17 03:13:33;;;;;;;12.43;3.50;;;;;;;13.84;36.39;102318.31;5052569;28;20081;-82
2022/03/17 03:15:58;;;;;;;8.32;4.43;;;;;;;13.85;36.53;102305.41;5052646;28;20116;-75
2022/03/17 03:18:24;;;;;;;9.23;3.85;;;;;;;13.92;36.50;102316.00;5034690;28;20021;-75
2022/03/17 03:20:50;;;;;;;8.60;3.90;;;;;;;13.93;36.80;102307.47;5052273;28;20037;-75
2022/03/17 03:23:16;;;;;;;8.38;4.13;;;;;;;13.95;36.61;102305.22;5052485;28;20382;-75
2022/03/17 03:25:41;;;;;;;10.38;3.92;;;;;;;13.96;36.87;102300.56;5052237;28;20045;-75
2022/03/17 03:28:09;;;;;;;10.18;4.55;;;;;;;13.97;36.90;102296.69;5052372;28;20641;-75
2022/03/17 03:30:36;;;;;;;9.02;3.90;;;;;;;14.00;36.85;102301.59;5052312;28;20108;-75
2022/03/17 03:33:03;;;;;;;8.63;3.80;;;;;;;14.04;36.91;102291.63;5034362;28;20021;-75
2022/03/17 03:38:14;;;;;;;7.78;3.78;;;;;;;14.05;36.97;102276.78;5052614;28;20143;-74
2022/03/17 03:40:39;;;;;;;10.88;4.00;;;;;;;14.02;37.27;102267.19;5052302;28;20115;-75
2022/03/17 03:43:05;;;;;;;11.82;4.03;;;;;;;14.06;37.06;102271.00;5052245;28;20025;-74
2022/03/17 03:45:31;;;;;;;9.35;3.90;;;;;;;14.09;37.07;102278.63;5052267;28;20029;-75
2022/03/17 03:47:56;;;;;;;7.03;3.90;;;;;;;14.12;36.87;102279.97;5052214;28;20025;-75
2022/03/17 03:50:22;;;;;;;8.63;2.80;;;;;;;14.17;36.97;102282.63;5052181;28;20553;-75
2022/03/17 03:52:48;;;;;;;7.45;3.20;;;;;;;14.16;36.93;102275.50;5034210;28;20021;-75
2022/03/17 03:55:13;;;;;;;7.75;3.22;;;;;;;14.15;37.23;102265.63;5052147;28;20045;-75
2022/03/17 03:57:39;;;;;;;7.65;3.30;;;;;;;14.16;37.05;102275.50;5052183;28;20040;-75
2022/03/17 04:03:03;;;;;;;5.50;3.03;;;;;;;14.19;37.12;102263.09;5034757;28;20472;-75
2022/03/17 04:05:31;;;;;;;8.48;3.75;;;;;;;14.16;37.25;102272.75;5052085;28;20489;-75
2022/03/17 04:07:57;;;;;;;5.03;2.72;;;;;;;14.13;37.10;102267.84;5031597;28;20111;-75
2022/03/17 04:10:24;;;;;;;6.85;2.97;;;;;;;14.10;37.44;102263.78;5051914;28;20464;-74
2022/03/17 04:12:51;;;;;;;5.70;2.65;;;;;;;14.10;37.29;102258.28;5052003;28;20415;-75
2022/03/17 04:15:16;;;;;;;8.32;2.90;;;;;;;14.06;37.45;102253.69;5051899;28;20025;-75
2022/03/17 04:17:42;;;;;;;7.28;2.58;;;;;;;14.08;37.45;102245.94;5051977;28;20025;-75
2022/03/17 04:20:09;;;;;;;12.02;3.67;;;;;;;14.06;37.56;102250.94;5051812;28;20035;-75
2022/03/17 04:22:35;;;;;;;9.38;2.90;;;;;;;14.09;37.65;102253.91;5052038;28;20112;-75
2022/03/17 04:25:01;;;;;;;7.13;2.80;;;;;;;14.12;37.65;102258.78;5051882;28;20447;-75
2022/03/17 04:27:27;;;;;;;8.07;2.78;;;;;;;14.12;37.52;102258.78;5051436;28;20056;-75
2022/03/17 04:29:54;;;;;;;10.15;2.78;;;;;;;14.15;37.34;102265.63;5052131;28;20041;-75
2022/03/17 04:32:20;;;;;;;8.80;3.28;;;;;;;14.15;37.54;102260.94;5051769;28;20386;-75
2022/03/17 04:34:46;;;;;;;8.05;2.85;;;;;;;14.18;37.55;102262.28;5051818;28;20029;-75
2022/03/17 04:37:11;;;;;;;6.03;2.22;;;;;;;14.13;37.72;102265.94;5051795;28;20098;-82
2022/03/17 04:39:37;;;;;;;5.90;2.15;;;;;;;14.06;38.17;102262.75;5052159;28;20078;-75
2022/03/17 04:42:03;;;;;;;7.78;2.63;;;;;;;14.23;37.79;102270.44;5055288;28;20037;-75
2022/03/17 04:44:28;;;;;;;6.53;2.50;;;;;;;14.21;37.80;102258.09;5055309;28;20029;-76
2022/03/17 04:46:54;;;;;;;3.38;2.30;;;;;;;14.29;37.81;102257.44;5055445;28;20470;-75
2022/03/17 04:49:20;;;;;;;4.20;1.75;;;;;;;14.26;38.02;102266.25;5055180;28;20109;-75
2022/03/17 04:51:46;;;;;;;5.68;2.08;;;;;;;14.26;37.82;102258.00;5055260;28;20475;-75
2022/03/17 04:54:11;;;;;;;9.35;2.58;;;;;;;14.23;38.01;102253.94;5055149;28;20097;-75
2022/03/17 04:56:37;;;;;;;4.43;1.90;;;;;;;14.25;37.96;102248.13;5055099;28;20033;-76
2022/03/17 04:59:02;;;;;;;3.83;1.33;;;;;;;14.24;37.92;102258.31;5055179;28;20021;-75
2022/03/17 05:01:28;;;;;;;6.30;2.05;;;;;;;14.31;37.98;102255.19;5054904;28;20513;-75
2022/03/17 05:03:54;;;;;;;5.72;2.10;;;;;;;14.32;37.99;102252.13;5054989;28;20459;-75
2022/03/17 05:06:19;;;;;;;6.20;1.65;;;;;;;14.34;37.81;102252.63;5054966;28;20422;-75
2022/03/17 05:08:45;;;;;;;2.58;1.63;;;;;;;14.33;38.07;102256.50;5054903;28;20561;-75
2022/03/17 05:11:13;;;;;;;3.95;1.83;;;;;;;14.33;38.17;102259.25;5055044;28;20056;-74
2022/03/17 05:13:39;;;;;;;2.88;1.58;;;;;;;14.39;38.00;102263.56;5054755;28;20390;-74
2022/03/17 05:16:07;;;;;;;3.30;1.42;;;;;;;14.43;38.12;102261.84;5054737;28;20453;-75
2022/03/17 05:18:33;;;;;;;4.95;1.63;;;;;;;14.47;38.26;102266.78;5054653;28;20100;-75
2022/03/17 05:21:00;;;;;;;4.32;1.50;;;;;;;14.53;38.13;102263.63;5054618;28;20032;-75
2022/03/17 05:23:25;;;;;;;3.72;1.50;;;;;;;14.62;37.99;102244.47;5054569;28;20383;-76
2022/03/17 05:25:52;;;;;;;4.95;1.48;;;;;;;14.67;38.29;102252.66;5054421;28;20052;-75
2022/03/17 05:28:18;;;;;;;5.22;1.33;;;;;;;14.74;38.05;102250.31;5054549;28;20498;-79
2022/03/17 05:30:45;;;;;;;6.07;1.35;;;;;;;14.74;38.13;102239.31;5054489;28;20100;-75
2022/03/17 05:33:11;;;;;;;7.20;1.83;;;;;;;14.84;38.28;102233.59;5054492;28;20032;-75
2022/03/17 05:35:42;;;;;;;3.50;1.48;;;;;;;14.89;38.09;102230.75;5054417;28;20057;-75
2022/03/17 05:38:08;;;;;;;5.45;1.33;;;;;;;14.95;38.28;102226.75;5054455;28;20032;-75
2022/03/17 05:40:34;;;;;;;4.18;1.13;;;;;;;15.04;38.44;102231.53;5053351;28;20029;-84
2022/03/17 05:43:03;;;;;;;4.18;1.20;;;;;;;15.04;38.46;102237.88;5053569;28;20421;-75
2022/03/17 05:45:29;;;;;;;3.72;1.08;;;;;;;15.18;38.02;102237.84;5052352;28;20020;-75
2022/03/17 05:47:57;;;;;;;3.95;1.10;;;;;;;15.24;38.27;102237.44;5052350;28;20062;-83
2022/03/17 05:50:32;;;;;;;6.45;1.70;;;;;;;15.23;38.70;102229.50;5052325;28;20037;-75
2022/03/17 05:52:57;;;;;;;3.85;1.40;;;;;;;15.35;38.51;102234.47;5052152;28;20107;-76
2022/03/17 05:55:24;;;;;;;3.55;1.17;;;;;;;15.43;38.60;102237.31;5052219;28;20100;-75
2022/03/17 05:57:55;;;;;;;2.78;1.00;;;;;;;15.43;38.90;102233.75;5052143;28;20593;-75
2022/03/17 06:00:23;;;;;;;4.68;1.48;;;;;;;15.49;38.60;102225.06;5053734;28;20471;-74
2022/03/17 06:02:49;;;;;;;2.95;1.08;;;;;;;15.53;38.89;102222.50;5053167;28;20017;-75
2022/03/17 06:05:15;;;;;;;5.88;1.48;;;;;;;15.62;38.92;102228.91;5053862;28;20037;-75
2022/03/17 06:07:42;;;;;;;4.72;1.10;;;;;;;15.67;38.89;102231.56;5053771;28;20032;-75
2022/03/17 06:10:13;;;;;;;3.60;0.82;;;;;;;15.75;38.96;102236.34;5053670;28;20490;-75
2022/03/17 06:12:40;;;;;;;3.33;1.00;;;;;;;15.87;38.87;102252.31;5053771;28;20107;-75
2022/03/17 06:15:07;;;;;;;3.60;1.00;;;;;;;15.85;38.89;102251.00;5053813;28;20021;-75
2022/03/17 06:17:44;;;;;;;4.93;1.30;;;;;;;15.88;39.33;102262.22;5053546;28;20379;-75
2022/03/17 06:20:13;;;;;;;6.72;2.00;;;;;;;16.01;38.99;102264.09;5053484;28;20498;-75
2022/03/17 06:22:40;;;;;;;2.28;1.02;;;;;;;16.11;38.88;102267.75;5053394;28;20114;-74
2022/03/17 06:25:07;;;;;;;4.28;1.33;;;;;;;16.19;38.64;102270.56;5053509;28;20044;-75
2022/03/17 06:27:34;;;;;;;13.77;2.60;;;;;;;16.18;38.75;102268.13;5053254;28;20045;-75
2022/03/17 06:30:01;;;;;;;4.40;1.10;;;;;;;16.25;38.77;102265.75;5035477;28;20399;-78
2022/03/17 06:32:28;;;;;;;3.70;1.23;;;;;;;16.24;39.10;102269.59;5035406;28;20035;-75
2022/03/17 06:34:53;;;;;;;7.05;1.13;;;;;;;16.20;39.09;102268.63;5053206;28;20475;-75
2022/03/17 06:37:19;;;;;;;2.67;1.17;;;;;;;16.34;38.84;102258.34;5053334;28;20117;-75
2022/03/17 06:39:44;;;;;;;8.75;1.83;;;;;;;16.32;38.67;102247.63;5053188;28;20135;-75
2022/03/17 06:42:10;;;;;;;5.95;1.35;;;;;;;16.41;38.91;102230.31;5053074;28;20021;-82
2022/03/17 06:44:36;;;;;;;3.38;1.17;;;;;;;16.28;39.39;102243.84;5053274;28;20487;-76
2022/03/17 06:47:01;;;;;;;6.90;1.40;;;;;;;16.33;39.45;102245.66;5053026;28;20024;-83
2022/03/17 06:49:27;;;;;;;4.97;1.05;;;;;;;16.32;39.58;102244.00;5053081;28;20033;-75
2022/03/17 06:51:52;;;;;;;2.88;0.82;;;;;;;16.33;39.70;102246.47;5053041;28;20033;-75
2022/03/17 06:54:18;;;;;;;10.30;2.55;;;;;;;16.29;39.76;102236.38;5052939;28;20033;-75
2022/03/17 06:56:44;;;;;;;8.00;1.33;;;;;;;16.32;39.82;102241.25;5052974;28;20029;-75
2022/03/17 06:59:09;;;;;;;13.95;3.15;;;;;;;16.38;39.69;102238.06;5052967;28;20386;-83
2022/03/17 07:01:35;;;;;;;1.83;0.90;;;;;;;16.46;39.53;102230.13;5052172;28;20095;-75
2022/03/17 07:04:00;;;;;;;5.03;1.05;;;;;;;16.41;39.61;102241.34;5052121;28;20059;-75
2022/03/17 07:06:26;;;;;;;7.82;1.58;;;;;;;16.41;39.86;102253.19;5052763;28;20032;-76
2022/03/17 07:08:51;;;;;;;3.38;1.10;;;;;;;16.45;39.93;102240.38;5052749;28;20075;-75
2022/03/17 07:11:20;;;;;;;5.03;1.00;;;;;;;16.52;39.87;102226.13;5052742;28;20027;-75
2022/03/17 07:13:46;;;;;;;4.35;1.35;;;;;;;16.52;40.10;102223.38;5052764;28;20387;-84
2022/03/17 07:16:12;;;;;;;5.00;1.10;;;;;;;16.44;40.10;102224.13;5052616;28;20025;-75
2022/03/17 07:18:38;;;;;;;3.92;1.50;;;;;;;16.55;39.92;102212.53;5052579;28;20036;-75
2022/03/17 07:21:03;;;;;;;2.72;1.10;;;;;;;16.67;39.59;102211.09;5052561;28;20036;-76
2022/03/17 07:23:29;;;;;;;3.45;0.93;;;;;;;16.71;39.64;102223.16;5034660;28;20101;-76
2022/03/17 07:25:55;;;;;;;3.78;0.88;;;;;;;16.57;39.89;102226.81;5052066;28;21203;-75
2022/03/17 07:28:21;;;;;;;6.88;1.02;;;;;;;16.56;40.13;102227.94;5034644;28;20068;-75
2022/03/17 07:30:47;;;;;;;8.20;1.17;;;;;;;16.68;40.05;102212.72;5052400;28;20057;-75
2022/03/17 07:33:13;;;;;;;7.13;1.63;;;;;;;16.81;39.79;102218.16;5052488;28;20071;-75
2022/03/17 07:35:39;;;;;;;16.27;4.03;;;;;;;16.74;39.84;102214.25;5034617;28;20449;-75
2022/03/17 07:38:05;;;;;;;4.97;1.30;;;;;;;16.70;39.94;102208.56;5052551;28;20048;-75
2022/03/17 07:40:31;;;;;;;4.18;0.98;;;;;;;16.71;40.24;102201.09;5051716;28;20387;-79
2022/03/17 07:42:57;;;;;;;5.57;2.20;;;;;;;16.68;40.24;102204.44;5051174;28;20033;-82
2022/03/17 07:45:23;;;;;;;7.35;1.63;;;;;;;16.72;40.21;102202.72;5033542;28;20105;-76
2022/03/17 07:47:50;;;;;;;6.60;1.80;;;;;;;16.78;39.96;102204.19;5033063;28;20033;-76
2022/03/17 07:50:17;;;;;;;2.67;1.00;;;;;;;16.46;40.67;102153.72;5052506;28;20032;-76
2022/03/17 07:52:42;;;;;;;5.72;1.30;;;;;;;16.89;39.79;102205.53;5034453;28;20021;-75
2022/03/17 07:55:09;;;;;;;4.03;1.15;;;;;;;16.82;40.09;102194.13;5052262;28;20033;-75
2022/03/17 07:57:35;;;;;;;9.13;2.00;;;;;;;16.83;40.16;102193.81;5052042;28;20032;-74
2022/03/17 08:00:03;;;;;;;3.88;0.80;;;;;;;16.83;40.38;102204.03;5051885;28;20032;-80
2022/03/17 08:02:30;;;;;;;3.38;0.93;;;;;;;16.52;40.91;102196.59;5047317;28;20029;-76
2022/03/17 08:04:56;;;;;;;5.25;1.83;;;;;;;16.92;40.44;102202.91;5050321;28;20088;-80
2022/03/17 08:07:22;;;;;;;5.60;1.48;;;;;;;17.01;40.04;102189.16;5051941;28;20114;-75
2022/03/17 08:09:48;;;;;;;5.40;1.27;;;;;;;17.35;39.52;102204.16;5052179;28;20463;-76
2022/03/17 08:12:14;;;;;;;5.63;1.52;;;;;;;17.45;39.35;102187.25;5052081;28;20475;-75
2022/03/17 08:14:40;;;;;;;6.90;1.23;;;;;;;17.57;39.08;102215.06;5052427;28;20025;-76
2022/03/17 08:17:05;;;;;;;6.53;2.47;;;;;;;17.58;39.50;102219.44;5056011;28;20028;-76
2022/03/17 08:19:33;;;;;;;4.28;1.20;;;;;;;17.47;39.71;102207.09;5057175;28;20091;-77
2022/03/17 08:21:59;;;;;;;8.15;1.67;;;;;;;17.42;40.19;102232.94;5059185;28;20025;-85
2022/03/17 08:24:25;;;;;;;4.15;1.40;;;;;;;17.59;39.92;102221.06;5059653;28;20093;-76
2022/03/17 08:26:52;;;;;;;8.75;1.40;;;;;;;17.72;39.62;102214.59;5059160;28;20807;-77
2022/03/17 08:29:18;;;;;;;6.97;1.25;;;;;;;18.15;38.95;102226.78;5059542;28;20024;-76
2022/03/17 08:31:44;;;;;;;3.45;1.00;;;;;;;18.26;38.74;102216.97;5057584;28;20089;-76
2022/03/17 08:34:09;;;;;;;7.43;1.70;;;;;;;18.46;38.73;102223.75;5041159;28;20082;-77
2022/03/17 08:36:35;;;;;;;3.42;1.20;;;;;;;18.44;38.67;102224.09;5037910;28;20036;-75
2022/03/17 08:39:00;;;;;;;6.43;1.40;;;;;;;18.28;39.18;102221.00;5039247;28;20035;-77
2022/03/17 08:41:26;;;;;;;7.47;1.60;;;;;;;18.48;38.65;102210.38;5058230;28;20043;-82
2022/03/17 08:43:52;;;;;;;18.05;3.38;;;;;;;18.23;39.16;102212.91;5058014;28;20097;-78
2022/03/17 08:49:18;;;;;;;7.70;1.42;;;;;;;18.62;38.67;102211.00;5058540;28;20448;-76
2022/03/17 08:51:50;;;;;;;4.28;1.40;;;;;;;18.61;38.80;102225.16;5059021;28;20488;-86
2022/03/17 08:54:17;;;;;;;7.20;2.22;;;;;;;18.62;38.83;102233.13;5040733;28;20098;-78
2022/03/17 08:56:42;;;;;;;5.63;1.83;;;;;;;18.86;38.56;102232.56;5058654;28;20033;-78
2022/03/17 08:59:09;;;;;;;6.53;1.42;;;;;;;19.07;38.40;102230.66;5057192;28;20826;-77
2022/03/17 09:01:37;;;;;;;13.15;2.28;;;;;;;19.25;38.43;102231.38;5057657;28;20056;-77
2022/03/17 09:04:04;;;;;;;7.25;1.98;;;;;;;18.98;38.77;102226.34;5039803;28;20402;-77
2022/03/17 09:06:30;;;;;;;6.13;1.30;;;;;;;19.11;38.46;102233.56;5058417;28;20037;-79
2022/03/17 09:08:55;;;;;;;5.35;1.42;;;;;;;19.16;38.32;102230.63;5058166;28;20037;-78
2022/03/17 09:11:21;;;;;;;6.53;1.55;;;;;;;19.39;38.33;102228.34;5058172;28;20025;-77
2022/03/17 09:13:49;;;;;;;4.35;1.58;;;;;;;19.54;38.06;102243.56;5058488;28;20079;-76
2022/03/17 09:16:16;;;;;;;13.20;2.13;;;;;;;19.40;38.55;102243.81;5067138;28;20048;-76
2022/03/17 09:18:42;;;;;;;7.30;2.60;;;;;;;19.63;37.99;102228.50;5074281;28;20021;-77
2022/03/17 09:21:09;;;;;;;5.32;1.70;;;;;;;19.59;38.21;102241.44;5074251;28;20059;-84
2022/03/17 09:23:34;;;;;;;5.30;1.40;;;;;;;19.80;37.68;102247.00;5056079;28;20020;-78
2022/03/17 09:26:01;;;;;;;9.43;2.38;;;;;;;19.87;37.81;102238.91;5073431;28;20058;-79
2022/03/17 09:28:29;;;;;;;6.55;1.65;;;;;;;19.76;38.14;102237.72;5054285;28;20501;-79
2022/03/17 09:30:56;;;;;;;4.60;1.70;;;;;;;19.66;38.28;102232.59;5056627;28;20037;-80
2022/03/17 09:33:25;;;;;;;6.53;2.17;;;;;;;19.83;38.07;102229.66;5039527;28;20133;-80
2022/03/17 09:35:56;;;;;;;10.30;2.33;;;;;;;19.83;37.95;102228.84;5039751;28;20044;-80
2022/03/17 09:38:22;;;;;;;7.63;1.85;;;;;;;19.93;37.91;102240.31;5056923;28;20202;-80
2022/03/17 09:40:48;;;;;;;9.23;2.47;;;;;;;19.86;38.08;102237.28;5071678;28;20107;-80
2022/03/17 09:43:21;;;;;;;7.72;2.30;;;;;;;20.13;37.83;102235.91;5072520;28;20419;-78
2022/03/17 09:45:52;;;;;;;9.00;2.22;;;;;;;20.08;37.74;102246.41;5036465;28;20083;-78
2022/03/17 09:48:20;;;;;;;8.57;2.08;;;;;;;20.01;38.12;102240.59;5031267;28;20483;-79
2022/03/17 09:50:47;;;;;;;4.60;1.83;;;;;;;20.28;37.63;102244.72;5054014;28;20025;-78
2022/03/17 09:53:13;;;;;;;12.15;2.78;;;;;;;20.14;37.92;102253.34;5052733;28;20031;-78
2022/03/17 09:55:43;;;;;;;7.95;1.95;;;;;;;20.37;37.68;102243.47;5035319;28;20507;-76
2022/03/17 09:58:10;;;;;;;10.02;3.35;;;;;;;20.32;37.72;102251.22;5053192;28;20017;-75
2022/03/17 10:00:47;;;;;;;9.20;3.17;;;;;;;20.31;37.71;102255.13;5035907;28;20115;-75
2022/03/17 10:03:28;;;;;;;7.68;2.60;;;;;;;20.16;38.10;102259.38;5036024;28;20025;-75
2022/03/17 10:06:02;;;;;;;9.77;3.03;;;;;;;20.31;37.83;102255.13;5041492;28;20098;-75
2022/03/17 10:08:29;;;;;;;9.18;2.58;;;;;;;19.78;38.85;102263.13;5039503;28;20021;-79
2022/03/17 10:10:54;;;;;;;11.68;3.50;;;;;;;20.23;38.20;102271.53;5035414;28;20021;-78
2022/03/17 10:13:23;;;;;;;13.65;2.67;;;;;;;20.63;37.67;102261.81;5053471;28;20035;-76
2022/03/17 10:16:07;;;;;;;8.63;2.85;;;;;;;20.22;38.25;102266.34;5044210;28;20485;-76
2022/03/17 10:18:36;;;;;;;14.48;3.58;;;;;;;20.53;37.67;102274.19;5062174;28;20056;-75
2022/03/17 10:21:12;;;;;;;9.95;2.20;;;;;;;20.45;38.00;102278.69;5045026;28;20045;-75
2022/03/17 10:23:51;;;;;;;15.93;2.85;;;;;;;20.62;37.69;102271.31;5059052;28;20021;-76
2022/03/17 10:26:42;;;;;;;9.77;2.60;;;;;;;20.43;37.66;102280.97;5043986;28;20049;-78
2022/03/17 10:29:15;;;;;;;13.40;2.40;;;;;;;20.43;37.96;102280.97;5044694;28;20032;-75
2022/03/17 10:32:01;;;;;;;14.18;3.08;;;;;;;20.63;37.43;102268.22;5042690;28;20025;-83
2022/03/17 10:34:45;;;;;;;11.75;2.60;;;;;;;19.84;38.43;102280.38;5043225;28;20082;-76
2022/03/17 10:37:13;;;;;;;15.82;3.33;;;;;;;20.69;37.07;102288.22;5062477;28;20029;-76
2022/03/17 10:39:42;;;;;;;12.52;2.72;;;;;;;20.96;36.62;102286.78;5064226;28;20020;-76
2022/03/17 10:42:16;;;;;;;24.02;4.28;;;;;;;21.20;36.24;102297.06;5063350;28;20475;-76
2022/03/17 10:44:47;;;;;;;14.82;3.13;;;;;;;20.98;36.42;102304.69;5041262;28;20024;-76
2022/03/17 10:47:13;;;;;;;8.48;2.50;;;;;;;21.07;36.64;102304.59;5054283;28;20017;-75
2022/03/17 10:50:06;;;;;;;13.18;3.00;;;;;;;21.32;36.29;102306.25;5061278;28;20368;-74
2022/03/17 10:52:46;;;;;;;17.88;3.17;;;;;;;21.37;35.50;102302.41;5063088;28;20037;-79
2022/03/17 10:55:12;;;;;;;14.32;3.13;;;;;;;21.05;36.54;102320.81;5051355;28;20024;-80
2022/03/17 10:57:38;;;;;;;12.32;3.63;;;;;;;21.20;36.14;102317.34;5034870;28;20562;-76
2022/03/17 11:00:09;;;;;;;15.98;3.72;;;;;;;21.34;35.90;102322.59;5052506;28;20025;-76
2022/03/17 11:02:37;;;;;;;17.15;4.00;;;;;;;21.70;35.41;102323.72;5052729;28;20016;-75
2022/03/17 11:05:10;;;;;;;11.57;3.20;;;;;;;21.49;35.90;102329.41;5033706;28;20464;-75
2022/03/17 11:07:38;;;;;;;16.58;4.15;;;;;;;21.87;35.57;102323.44;5051569;28;20514;-75
2022/03/17 11:10:05;;;;;;;25.25;4.93;;;;;;;21.88;35.49;102330.59;5053165;28;20391;-74
2022/03/17 11:12:31;;;;;;;16.05;4.47;;;;;;;21.72;35.43;102324.97;5052697;28;20029;-74
2022/03/17 11:14:57;;;;;;;19.52;4.85;;;;;;;22.01;34.90;102323.84;5052712;28;20032;-75
2022/03/17 11:17:47;;;;;;;10.35;3.15;;;;;;;21.54;35.42;102324.44;5052623;28;20021;-75
2022/03/17 11:20:18;;;;;;;12.60;3.13;;;;;;;21.53;35.23;102320.00;5051732;28;20027;-75
2022/03/17 11:22:50;;;;;;;14.50;3.30;;;;;;;22.02;34.73;102341.34;5050673;28;20114;-79
2022/03/17 11:25:28;;;;;;;19.52;3.67;;;;;;;22.03;34.78;102331.84;5050542;28;20028;-75
2022/03/17 11:27:59;;;;;;;20.08;5.40;;;;;;;22.38;34.49;102335.69;5050650;28;20045;-75
2022/03/17 11:30:41;;;;;;;16.13;3.78;;;;;;;22.63;34.22;102335.56;5052221;28;20104;-75
2022/03/17 11:33:27;;;;;;;18.77;3.92;;;;;;;21.93;35.13;102335.94;5034521;28;20419;-76
2022/03/17 11:36:10;;;;;;;12.10;3.05;;;;;;;22.14;34.27;102344.13;5052066;28;20029;-75
2022/03/17 11:38:39;;;;;;;12.80;3.70;;;;;;;22.47;34.03;102346.66;5052482;28;20025;-79